sensor_id;sensor_type;location;lat;lon;timestamp;P1;durP1;ratioP1;P2;durP2;ratioP2
20511;SDS011;10414;52.074;5.126;2023-05-23T00:00:56;18.35;;;9.88;;
20511;SDS011;10414;52.074;5.126;2023-05-23T00:03:24;23.02;;;10.40;;
20511;SDS011;10414;52.074;5.126;2023-05-23T00:05:51;27.90;;;10.00;;
20511;SDS011;10414;52.074;5.126;2023-05-23T00:08:18;26.45;;;10.35;;
20511;SDS011;10414;52.074;5.126;2023-05-23T00:10:46;24.08;;;10.40;;
20511;SDS011;10414;52.074;5.126;2023-05-23T00:13:13;22.83;;;10.23;;
20511;SDS011;10414;52.074;5.126;2023-05-23T00:15:41;28.40;;;10.98;;
20511;SDS011;10414;52.074;5.126;2023-05-23T00:18:08;24.05;;;11.30;;
20511;SDS011;10414;52.074;5.126;2023-05-23T00:20:37;26.35;;;11.57;;
20511;SDS011;10414;52.074;5.126;2023-05-23T00:25:34;26.13;;;10.52;;
20511;SDS011;10414;52.074;5.126;2023-05-23T00:28:02;23.75;;;10.15;;
20511;SDS011;10414;52.074;5.126;2023-05-23T00:30:30;26.13;;;9.50;;
20511;SDS011;10414;52.074;5.126;2023-05-23T00:32:58;21.15;;;8.77;;
20511;SDS011;10414;52.074;5.126;2023-05-23T00:35:25;23.10;;;10.77;;
20511;SDS011;10414;52.074;5.126;2023-05-23T00:37:52;21.85;;;9.20;;
20511;SDS011;10414;52.074;5.126;2023-05-23T00:40:20;21.83;;;9.85;;
20511;SDS011;10414;52.074;5.126;2023-05-23T00:42:47;25.98;;;10.13;;
20511;SDS011;10414;52.074;5.126;2023-05-23T00:45:16;21.27;;;9.82;;
20511;SDS011;10414;52.074;5.126;2023-05-23T00:47:43;21.73;;;9.57;;
20511;SDS011;10414;52.074;5.126;2023-05-23T00:50:12;18.08;;;8.63;;
20511;SDS011;10414;52.074;5.126;2023-05-23T00:52:40;23.70;;;9.00;;
20511;SDS011;10414;52.074;5.126;2023-05-23T00:55:08;23.25;;;9.82;;
20511;SDS011;10414;52.074;5.126;2023-05-23T00:57:35;22.05;;;9.50;;
20511;SDS011;10414;52.074;5.126;2023-05-23T01:00:05;26.15;;;10.38;;
20511;SDS011;10414;52.074;5.126;2023-05-23T01:02:35;23.15;;;10.07;;
20511;SDS011;10414;52.074;5.126;2023-05-23T01:05:07;17.25;;;8.05;;
20511;SDS011;10414;52.074;5.126;2023-05-23T01:07:35;16.83;;;7.55;;
20511;SDS011;10414;52.074;5.126;2023-05-23T01:10:02;15.68;;;7.28;;
20511;SDS011;10414;52.074;5.126;2023-05-23T01:12:31;15.40;;;7.28;;
20511;SDS011;10414;52.074;5.126;2023-05-23T01:15:05;20.23;;;7.72;;
20511;SDS011;10414;52.074;5.126;2023-05-23T01:17:38;13.90;;;6.82;;
20511;SDS011;10414;52.074;5.126;2023-05-23T01:20:11;16.23;;;6.57;;
20511;SDS011;10414;52.074;5.126;2023-05-23T01:22:48;10.98;;;5.40;;
20511;SDS011;10414;52.074;5.126;2023-05-23T01:25:27;10.82;;;5.28;;
20511;SDS011;10414;52.074;5.126;2023-05-23T01:28:08;12.77;;;5.90;;
20511;SDS011;10414;52.074;5.126;2023-05-23T01:30:40;11.32;;;5.15;;
20511;SDS011;10414;52.074;5.126;2023-05-23T01:33:09;10.52;;;5.35;;
20511;SDS011;10414;52.074;5.126;2023-05-23T01:35:38;11.50;;;5.45;;
20511;SDS011;10414;52.074;5.126;2023-05-23T01:38:07;10.50;;;5.22;;
20511;SDS011;10414;52.074;5.126;2023-05-23T01:40:36;10.32;;;4.47;;
20511;SDS011;10414;52.074;5.126;2023-05-23T01:43:03;10.90;;;5.22;;
20511;SDS011;10414;52.074;5.126;2023-05-23T01:45:31;12.32;;;5.10;;
20511;SDS011;10414;52.074;5.126;2023-05-23T01:47:58;13.23;;;5.15;;
20511;SDS011;10414;52.074;5.126;2023-05-23T01:50:27;11.55;;;5.40;;
20511;SDS011;10414;52.074;5.126;2023-05-23T01:52:54;13.25;;;5.55;;
20511;SDS011;10414;52.074;5.126;2023-05-23T01:55:22;8.75;;;4.63;;
20511;SDS011;10414;52.074;5.126;2023-05-23T01:57:50;15.48;;;6.00;;
20511;SDS011;10414;52.074;5.126;2023-05-23T02:00:20;15.82;;;5.93;;
20511;SDS011;10414;52.074;5.126;2023-05-23T02:02:48;15.18;;;5.43;;
20511;SDS011;10414;52.074;5.126;2023-05-23T02:05:15;13.20;;;5.80;;
20511;SDS011;10414;52.074;5.126;2023-05-23T02:07:42;17.33;;;5.60;;
20511;SDS011;10414;52.074;5.126;2023-05-23T02:10:09;20.15;;;6.22;;
20511;SDS011;10414;52.074;5.126;2023-05-23T02:12:36;19.60;;;6.57;;
20511;SDS011;10414;52.074;5.126;2023-05-23T02:15:03;15.00;;;6.25;;
20511;SDS011;10414;52.074;5.126;2023-05-23T02:17:31;16.27;;;6.32;;
20511;SDS011;10414;52.074;5.126;2023-05-23T02:19:59;18.85;;;7.00;;
20511;SDS011;10414;52.074;5.126;2023-05-23T02:22:26;15.38;;;6.03;;
20511;SDS011;10414;52.074;5.126;2023-05-23T02:24:53;20.08;;;7.30;;
20511;SDS011;10414;52.074;5.126;2023-05-23T02:27:20;15.30;;;6.47;;
20511;SDS011;10414;52.074;5.126;2023-05-23T02:29:47;15.88;;;6.38;;
20511;SDS011;10414;52.074;5.126;2023-05-23T02:32:14;15.88;;;6.53;;
20511;SDS011;10414;52.074;5.126;2023-05-23T02:34:40;17.55;;;5.72;;
20511;SDS011;10414;52.074;5.126;2023-05-23T02:37:12;18.65;;;6.20;;
20511;SDS011;10414;52.074;5.126;2023-05-23T02:39:40;15.20;;;6.60;;
20511;SDS011;10414;52.074;5.126;2023-05-23T02:42:07;17.05;;;6.95;;
20511;SDS011;10414;52.074;5.126;2023-05-23T02:44:34;17.02;;;6.13;;
20511;SDS011;10414;52.074;5.126;2023-05-23T02:47:01;18.23;;;6.70;;
20511;SDS011;10414;52.074;5.126;2023-05-23T02:49:28;20.35;;;7.03;;
20511;SDS011;10414;52.074;5.126;2023-05-23T02:51:55;20.08;;;6.30;;
20511;SDS011;10414;52.074;5.126;2023-05-23T02:54:23;17.80;;;6.63;;
20511;SDS011;10414;52.074;5.126;2023-05-23T02:56:50;19.15;;;7.07;;
20511;SDS011;10414;52.074;5.126;2023-05-23T02:59:18;19.60;;;6.75;;
20511;SDS011;10414;52.074;5.126;2023-05-23T03:01:46;15.23;;;6.70;;
20511;SDS011;10414;52.074;5.126;2023-05-23T03:04:12;17.75;;;6.68;;
20511;SDS011;10414;52.074;5.126;2023-05-23T03:06:40;18.38;;;7.13;;
20511;SDS011;10414;52.074;5.126;2023-05-23T03:09:09;22.35;;;7.95;;
20511;SDS011;10414;52.074;5.126;2023-05-23T03:11:52;18.45;;;7.57;;
20511;SDS011;10414;52.074;5.126;2023-05-23T03:14:19;23.33;;;7.35;;
20511;SDS011;10414;52.074;5.126;2023-05-23T03:16:46;22.48;;;7.30;;
20511;SDS011;10414;52.074;5.126;2023-05-23T03:19:33;20.50;;;7.38;;
20511;SDS011;10414;52.074;5.126;2023-05-23T03:22:20;21.65;;;7.35;;
20511;SDS011;10414;52.074;5.126;2023-05-23T03:24:50;20.23;;;7.40;;
20511;SDS011;10414;52.074;5.126;2023-05-23T03:27:18;20.35;;;6.53;;
20511;SDS011;10414;52.074;5.126;2023-05-23T03:29:45;25.23;;;6.55;;
20511;SDS011;10414;52.074;5.126;2023-05-23T03:32:13;22.77;;;7.13;;
20511;SDS011;10414;52.074;5.126;2023-05-23T03:34:43;21.17;;;7.43;;
20511;SDS011;10414;52.074;5.126;2023-05-23T03:37:10;26.92;;;7.53;;
20511;SDS011;10414;52.074;5.126;2023-05-23T03:39:39;16.03;;;6.20;;
20511;SDS011;10414;52.074;5.126;2023-05-23T03:42:06;24.00;;;7.30;;
20511;SDS011;10414;52.074;5.126;2023-05-23T03:44:35;20.58;;;6.78;;
20511;SDS011;10414;52.074;5.126;2023-05-23T03:47:14;22.80;;;6.18;;
20511;SDS011;10414;52.074;5.126;2023-05-23T03:49:48;21.48;;;6.93;;
20511;SDS011;10414;52.074;5.126;2023-05-23T03:52:20;19.45;;;6.35;;
20511;SDS011;10414;52.074;5.126;2023-05-23T03:54:51;24.92;;;6.72;;
20511;SDS011;10414;52.074;5.126;2023-05-23T03:57:31;22.02;;;5.68;;
20511;SDS011;10414;52.074;5.126;2023-05-23T03:59:59;20.02;;;6.13;;
20511;SDS011;10414;52.074;5.126;2023-05-23T04:02:30;16.92;;;5.07;;
20511;SDS011;10414;52.074;5.126;2023-05-23T04:04:57;18.02;;;5.60;;
20511;SDS011;10414;52.074;5.126;2023-05-23T04:07:24;19.38;;;5.95;;
20511;SDS011;10414;52.074;5.126;2023-05-23T04:09:51;19.48;;;5.47;;
20511;SDS011;10414;52.074;5.126;2023-05-23T04:12:28;24.65;;;6.40;;
20511;SDS011;10414;52.074;5.126;2023-05-23T04:14:55;19.88;;;5.55;;
20511;SDS011;10414;52.074;5.126;2023-05-23T04:17:25;18.75;;;5.65;;
20511;SDS011;10414;52.074;5.126;2023-05-23T04:19:57;16.48;;;5.07;;
20511;SDS011;10414;52.074;5.126;2023-05-23T04:22:25;13.25;;;5.28;;
20511;SDS011;10414;52.074;5.126;2023-05-23T04:24:51;16.58;;;4.82;;
20511;SDS011;10414;52.074;5.126;2023-05-23T04:27:18;14.77;;;4.45;;
20511;SDS011;10414;52.074;5.126;2023-05-23T04:29:46;15.45;;;4.18;;
20511;SDS011;10414;52.074;5.126;2023-05-23T04:32:19;13.77;;;4.32;;
20511;SDS011;10414;52.074;5.126;2023-05-23T04:34:50;13.25;;;3.95;;
20511;SDS011;10414;52.074;5.126;2023-05-23T04:37:17;13.25;;;3.72;;
20511;SDS011;10414;52.074;5.126;2023-05-23T04:39:46;12.00;;;4.05;;
20511;SDS011;10414;52.074;5.126;2023-05-23T04:42:13;15.45;;;4.35;;
20511;SDS011;10414;52.074;5.126;2023-05-23T04:44:40;10.68;;;4.05;;
20511;SDS011;10414;52.074;5.126;2023-05-23T04:47:09;13.07;;;3.83;;
20511;SDS011;10414;52.074;5.126;2023-05-23T04:49:36;17.30;;;4.05;;
20511;SDS011;10414;52.074;5.126;2023-05-23T04:52:05;12.20;;;4.03;;
20511;SDS011;10414;52.074;5.126;2023-05-23T04:54:32;16.98;;;4.60;;
20511;SDS011;10414;52.074;5.126;2023-05-23T04:57:00;13.25;;;4.05;;
20511;SDS011;10414;52.074;5.126;2023-05-23T04:59:27;10.85;;;4.05;;
20511;SDS011;10414;52.074;5.126;2023-05-23T05:01:54;16.30;;;4.07;;
20511;SDS011;10414;52.074;5.126;2023-05-23T05:04:22;15.38;;;4.32;;
20511;SDS011;10414;52.074;5.126;2023-05-23T05:06:50;11.43;;;4.00;;
20511;SDS011;10414;52.074;5.126;2023-05-23T05:09:21;11.98;;;4.10;;
20511;SDS011;10414;52.074;5.126;2023-05-23T05:11:53;15.07;;;3.97;;
20511;SDS011;10414;52.074;5.126;2023-05-23T05:14:20;12.63;;;4.30;;
20511;SDS011;10414;52.074;5.126;2023-05-23T05:16:47;14.15;;;4.22;;
20511;SDS011;10414;52.074;5.126;2023-05-23T05:19:18;15.93;;;4.45;;
20511;SDS011;10414;52.074;5.126;2023-05-23T05:21:46;19.88;;;5.10;;
20511;SDS011;10414;52.074;5.126;2023-05-23T05:24:13;15.40;;;4.00;;
20511;SDS011;10414;52.074;5.126;2023-05-23T05:26:42;13.63;;;3.65;;
20511;SDS011;10414;52.074;5.126;2023-05-23T05:29:09;13.38;;;4.07;;
20511;SDS011;10414;52.074;5.126;2023-05-23T05:31:41;13.27;;;4.10;;
20511;SDS011;10414;52.074;5.126;2023-05-23T05:34:09;17.02;;;4.07;;
20511;SDS011;10414;52.074;5.126;2023-05-23T05:36:36;11.07;;;3.50;;
20511;SDS011;10414;52.074;5.126;2023-05-23T05:39:09;12.90;;;4.25;;
20511;SDS011;10414;52.074;5.126;2023-05-23T05:41:37;14.50;;;4.65;;
20511;SDS011;10414;52.074;5.126;2023-05-23T05:44:05;13.70;;;4.65;;
20511;SDS011;10414;52.074;5.126;2023-05-23T05:46:32;18.27;;;5.47;;
20511;SDS011;10414;52.074;5.126;2023-05-23T05:48:59;14.88;;;4.35;;
20511;SDS011;10414;52.074;5.126;2023-05-23T05:51:26;13.93;;;5.32;;
20511;SDS011;10414;52.074;5.126;2023-05-23T05:53:58;18.83;;;4.55;;
20511;SDS011;10414;52.074;5.126;2023-05-23T05:56:28;16.25;;;4.53;;
20511;SDS011;10414;52.074;5.126;2023-05-23T05:58:56;16.75;;;4.72;;
20511;SDS011;10414;52.074;5.126;2023-05-23T06:01:24;12.88;;;4.90;;
20511;SDS011;10414;52.074;5.126;2023-05-23T06:03:50;17.10;;;4.43;;
20511;SDS011;10414;52.074;5.126;2023-05-23T06:06:17;15.80;;;4.80;;
20511;SDS011;10414;52.074;5.126;2023-05-23T06:08:45;13.20;;;5.20;;
20511;SDS011;10414;52.074;5.126;2023-05-23T06:11:12;14.00;;;4.60;;
20511;SDS011;10414;52.074;5.126;2023-05-23T06:13:38;15.25;;;5.40;;
20511;SDS011;10414;52.074;5.126;2023-05-23T06:16:05;12.77;;;4.60;;
20511;SDS011;10414;52.074;5.126;2023-05-23T06:18:33;15.07;;;5.00;;
20511;SDS011;10414;52.074;5.126;2023-05-23T06:21:00;12.32;;;4.70;;
20511;SDS011;10414;52.074;5.126;2023-05-23T06:23:27;13.13;;;4.70;;
20511;SDS011;10414;52.074;5.126;2023-05-23T06:25:55;14.85;;;4.22;;
20511;SDS011;10414;52.074;5.126;2023-05-23T06:28:23;9.77;;;4.03;;
20511;SDS011;10414;52.074;5.126;2023-05-23T06:30:50;11.75;;;4.50;;
20511;SDS011;10414;52.074;5.126;2023-05-23T06:33:17;13.48;;;3.88;;
20511;SDS011;10414;52.074;5.126;2023-05-23T06:35:48;17.35;;;4.40;;
20511;SDS011;10414;52.074;5.126;2023-05-23T06:38:18;13.35;;;4.35;;
20511;SDS011;10414;52.074;5.126;2023-05-23T06:40:45;14.57;;;5.10;;
20511;SDS011;10414;52.074;5.126;2023-05-23T06:43:12;14.32;;;4.45;;
20511;SDS011;10414;52.074;5.126;2023-05-23T06:45:39;13.38;;;4.05;;
20511;SDS011;10414;52.074;5.126;2023-05-23T06:48:06;14.40;;;4.28;;
20511;SDS011;10414;52.074;5.126;2023-05-23T06:50:33;13.35;;;4.40;;
20511;SDS011;10414;52.074;5.126;2023-05-23T06:53:01;17.50;;;4.55;;
20511;SDS011;10414;52.074;5.126;2023-05-23T06:55:28;11.43;;;4.10;;
20511;SDS011;10414;52.074;5.126;2023-05-23T06:57:57;11.93;;;4.05;;
20511;SDS011;10414;52.074;5.126;2023-05-23T07:00:25;14.43;;;4.53;;
20511;SDS011;10414;52.074;5.126;2023-05-23T07:03:06;15.18;;;5.07;;
20511;SDS011;10414;52.074;5.126;2023-05-23T07:05:33;17.20;;;4.20;;
20511;SDS011;10414;52.074;5.126;2023-05-23T07:10:43;11.85;;;3.20;;
20511;SDS011;10414;52.074;5.126;2023-05-23T07:13:10;12.80;;;3.30;;
20511;SDS011;10414;52.074;5.126;2023-05-23T07:15:37;15.75;;;3.10;;
20511;SDS011;10414;52.074;5.126;2023-05-23T07:20:39;11.73;;;2.38;;
20511;SDS011;10414;52.074;5.126;2023-05-23T07:23:08;14.88;;;2.17;;
20511;SDS011;10414;52.074;5.126;2023-05-23T07:25:36;9.15;;;2.03;;
20511;SDS011;10414;52.074;5.126;2023-05-23T07:28:04;9.50;;;2.30;;
20511;SDS011;10414;52.074;5.126;2023-05-23T07:30:33;13.38;;;2.83;;
20511;SDS011;10414;52.074;5.126;2023-05-23T07:33:00;11.77;;;3.03;;
20511;SDS011;10414;52.074;5.126;2023-05-23T07:35:27;20.90;;;3.60;;
20511;SDS011;10414;52.074;5.126;2023-05-23T07:37:56;12.27;;;2.40;;
20511;SDS011;10414;52.074;5.126;2023-05-23T07:40:22;11.95;;;2.60;;
20511;SDS011;10414;52.074;5.126;2023-05-23T07:42:51;11.30;;;2.22;;
20511;SDS011;10414;52.074;5.126;2023-05-23T07:45:18;14.43;;;2.60;;
20511;SDS011;10414;52.074;5.126;2023-05-23T07:47:45;15.90;;;2.85;;
20511;SDS011;10414;52.074;5.126;2023-05-23T07:50:13;18.23;;;3.47;;
20511;SDS011;10414;52.074;5.126;2023-05-23T07:52:40;8.95;;;2.22;;
20511;SDS011;10414;52.074;5.126;2023-05-23T07:55:07;14.88;;;2.35;;
20511;SDS011;10414;52.074;5.126;2023-05-23T07:57:40;11.65;;;3.00;;
20511;SDS011;10414;52.074;5.126;2023-05-23T08:00:09;17.02;;;2.67;;
20511;SDS011;10414;52.074;5.126;2023-05-23T08:02:42;13.68;;;2.35;;
20511;SDS011;10414;52.074;5.126;2023-05-23T08:05:09;11.68;;;2.00;;
20511;SDS011;10414;52.074;5.126;2023-05-23T08:07:36;13.20;;;2.38;;
20511;SDS011;10414;52.074;5.126;2023-05-23T08:10:03;14.68;;;2.53;;
20511;SDS011;10414;52.074;5.126;2023-05-23T08:12:31;12.48;;;2.30;;
20511;SDS011;10414;52.074;5.126;2023-05-23T08:14:58;14.73;;;2.20;;
20511;SDS011;10414;52.074;5.126;2023-05-23T08:17:26;12.65;;;2.33;;
20511;SDS011;10414;52.074;5.126;2023-05-23T08:19:56;11.90;;;2.45;;
20511;SDS011;10414;52.074;5.126;2023-05-23T08:22:24;13.82;;;2.28;;
20511;SDS011;10414;52.074;5.126;2023-05-23T08:24:53;10.35;;;2.65;;
20511;SDS011;10414;52.074;5.126;2023-05-23T08:27:27;11.57;;;2.50;;
20511;SDS011;10414;52.074;5.126;2023-05-23T08:29:54;14.02;;;2.60;;
20511;SDS011;10414;52.074;5.126;2023-05-23T08:32:21;10.48;;;2.33;;
20511;SDS011;10414;52.074;5.126;2023-05-23T08:34:49;12.40;;;2.25;;
20511;SDS011;10414;52.074;5.126;2023-05-23T08:37:16;15.55;;;2.70;;
20511;SDS011;10414;52.074;5.126;2023-05-23T08:39:42;15.70;;;2.97;;
20511;SDS011;10414;52.074;5.126;2023-05-23T08:42:09;11.80;;;2.50;;
20511;SDS011;10414;52.074;5.126;2023-05-23T08:44:36;8.82;;;2.33;;
20511;SDS011;10414;52.074;5.126;2023-05-23T08:47:04;9.68;;;2.10;;
20511;SDS011;10414;52.074;5.126;2023-05-23T08:49:33;13.23;;;2.35;;
20511;SDS011;10414;52.074;5.126;2023-05-23T08:52:03;13.32;;;2.95;;
20511;SDS011;10414;52.074;5.126;2023-05-23T08:54:35;12.00;;;2.28;;
20511;SDS011;10414;52.074;5.126;2023-05-23T08:57:03;10.65;;;2.53;;
20511;SDS011;10414;52.074;5.126;2023-05-23T08:59:30;13.75;;;2.90;;
20511;SDS011;10414;52.074;5.126;2023-05-23T09:01:58;16.63;;;2.65;;
20511;SDS011;10414;52.074;5.126;2023-05-23T09:04:27;12.57;;;2.28;;
20511;SDS011;10414;52.074;5.126;2023-05-23T09:06:56;13.73;;;2.53;;
20511;SDS011;10414;52.074;5.126;2023-05-23T09:09:25;13.73;;;2.65;;
20511;SDS011;10414;52.074;5.126;2023-05-23T09:11:57;13.90;;;2.53;;
20511;SDS011;10414;52.074;5.126;2023-05-23T09:14:34;11.77;;;2.60;;
20511;SDS011;10414;52.074;5.126;2023-05-23T09:17:01;17.90;;;2.70;;
20511;SDS011;10414;52.074;5.126;2023-05-23T09:19:28;14.50;;;3.28;;
20511;SDS011;10414;52.074;5.126;2023-05-23T09:21:55;12.73;;;2.33;;
20511;SDS011;10414;52.074;5.126;2023-05-23T09:24:22;11.57;;;2.70;;
20511;SDS011;10414;52.074;5.126;2023-05-23T09:26:50;11.48;;;2.13;;
20511;SDS011;10414;52.074;5.126;2023-05-23T09:29:18;10.82;;;2.05;;
20511;SDS011;10414;52.074;5.126;2023-05-23T09:31:48;15.45;;;2.85;;
20511;SDS011;10414;52.074;5.126;2023-05-23T09:36:42;12.68;;;2.53;;
20511;SDS011;10414;52.074;5.126;2023-05-23T09:39:12;15.88;;;2.30;;
20511;SDS011;10414;52.074;5.126;2023-05-23T09:41:49;9.90;;;2.13;;
20511;SDS011;10414;52.074;5.126;2023-05-23T09:44:24;11.10;;;2.03;;
20511;SDS011;10414;52.074;5.126;2023-05-23T09:46:51;11.30;;;2.05;;
20511;SDS011;10414;52.074;5.126;2023-05-23T09:49:18;10.73;;;2.10;;
20511;SDS011;10414;52.074;5.126;2023-05-23T09:51:55;15.23;;;2.40;;
20511;SDS011;10414;52.074;5.126;2023-05-23T09:54:28;10.07;;;2.35;;
20511;SDS011;10414;52.074;5.126;2023-05-23T09:57:09;10.32;;;2.47;;
20511;SDS011;10414;52.074;5.126;2023-05-23T09:59:40;11.93;;;2.65;;
20511;SDS011;10414;52.074;5.126;2023-05-23T10:02:15;14.23;;;2.47;;
20511;SDS011;10414;52.074;5.126;2023-05-23T10:04:57;10.43;;;2.47;;
20511;SDS011;10414;52.074;5.126;2023-05-23T10:07:31;14.25;;;2.63;;
20511;SDS011;10414;52.074;5.126;2023-05-23T10:10:05;12.80;;;2.17;;
20511;SDS011;10414;52.074;5.126;2023-05-23T10:12:43;14.35;;;2.70;;
20511;SDS011;10414;52.074;5.126;2023-05-23T10:15:22;10.55;;;2.40;;
20511;SDS011;10414;52.074;5.126;2023-05-23T10:18:10;13.05;;;2.25;;
20511;SDS011;10414;52.074;5.126;2023-05-23T10:20:43;11.23;;;2.00;;
20511;SDS011;10414;52.074;5.126;2023-05-23T10:23:14;13.43;;;2.45;;
20511;SDS011;10414;52.074;5.126;2023-05-23T10:25:43;10.80;;;2.30;;
20511;SDS011;10414;52.074;5.126;2023-05-23T10:28:15;13.18;;;3.17;;
20511;SDS011;10414;52.074;5.126;2023-05-23T10:30:48;14.00;;;2.33;;
20511;SDS011;10414;52.074;5.126;2023-05-23T10:33:21;11.90;;;2.05;;
20511;SDS011;10414;52.074;5.126;2023-05-23T10:35:55;12.27;;;2.20;;
20511;SDS011;10414;52.074;5.126;2023-05-23T10:38:34;12.82;;;2.65;;
20511;SDS011;10414;52.074;5.126;2023-05-23T10:41:15;13.48;;;2.75;;
20511;SDS011;10414;52.074;5.126;2023-05-23T10:43:54;10.27;;;2.08;;
20511;SDS011;10414;52.074;5.126;2023-05-23T10:49:18;12.13;;;2.25;;
20511;SDS011;10414;52.074;5.126;2023-05-23T10:52:02;13.38;;;3.13;;
20511;SDS011;10414;52.074;5.126;2023-05-23T10:54:38;17.98;;;2.70;;
20511;SDS011;10414;52.074;5.126;2023-05-23T10:57:11;13.38;;;2.60;;
20511;SDS011;10414;52.074;5.126;2023-05-23T10:59:43;14.45;;;2.22;;
20511;SDS011;10414;52.074;5.126;2023-05-23T11:02:19;13.43;;;2.55;;
20511;SDS011;10414;52.074;5.126;2023-05-23T11:10:42;13.48;;;2.80;;
20511;SDS011;10414;52.074;5.126;2023-05-23T11:13:23;11.13;;;2.13;;
20511;SDS011;10414;52.074;5.126;2023-05-23T11:16:27;12.70;;;2.75;;
20511;SDS011;10414;52.074;5.126;2023-05-23T11:21:51;13.07;;;2.13;;
20511;SDS011;10414;52.074;5.126;2023-05-23T11:27:33;7.28;;;1.95;;
20511;SDS011;10414;52.074;5.126;2023-05-23T11:30:03;12.75;;;2.45;;
20511;SDS011;10414;52.074;5.126;2023-05-23T11:32:47;8.18;;;1.83;;
20511;SDS011;10414;52.074;5.126;2023-05-23T11:35:28;9.10;;;1.80;;
20511;SDS011;10414;52.074;5.126;2023-05-23T11:37:56;14.10;;;1.88;;
20511;SDS011;10414;52.074;5.126;2023-05-23T11:40:31;11.57;;;2.30;;
20511;SDS011;10414;52.074;5.126;2023-05-23T11:43:08;15.35;;;2.58;;
20511;SDS011;10414;52.074;5.126;2023-05-23T11:45:40;13.60;;;2.97;;
20511;SDS011;10414;52.074;5.126;2023-05-23T11:48:12;15.85;;;2.70;;
20511;SDS011;10414;52.074;5.126;2023-05-23T11:50:46;17.17;;;2.88;;
20511;SDS011;10414;52.074;5.126;2023-05-23T11:53:14;12.27;;;2.03;;
20511;SDS011;10414;52.074;5.126;2023-05-23T11:55:49;11.13;;;2.38;;
20511;SDS011;10414;52.074;5.126;2023-05-23T11:58:37;14.27;;;2.28;;
20511;SDS011;10414;52.074;5.126;2023-05-23T12:01:08;12.55;;;2.58;;
20511;SDS011;10414;52.074;5.126;2023-05-23T12:03:45;15.32;;;2.25;;
20511;SDS011;10414;52.074;5.126;2023-05-23T12:06:20;13.13;;;2.50;;
20511;SDS011;10414;52.074;5.126;2023-05-23T12:08:58;10.05;;;2.10;;
20511;SDS011;10414;52.074;5.126;2023-05-23T12:11:25;10.50;;;2.13;;
20511;SDS011;10414;52.074;5.126;2023-05-23T12:13:56;11.18;;;2.35;;
20511;SDS011;10414;52.074;5.126;2023-05-23T12:16:25;13.45;;;2.10;;
20511;SDS011;10414;52.074;5.126;2023-05-23T12:18:57;8.90;;;1.98;;
20511;SDS011;10414;52.074;5.126;2023-05-23T12:21:44;13.40;;;2.10;;
20511;SDS011;10414;52.074;5.126;2023-05-23T12:24:13;11.48;;;2.47;;
20511;SDS011;10414;52.074;5.126;2023-05-23T12:26:48;7.97;;;1.98;;
20511;SDS011;10414;52.074;5.126;2023-05-23T12:29:27;9.43;;;2.83;;
20511;SDS011;10414;52.074;5.126;2023-05-23T12:31:57;11.93;;;2.60;;
20511;SDS011;10414;52.074;5.126;2023-05-23T12:34:27;11.98;;;1.98;;
20511;SDS011;10414;52.074;5.126;2023-05-23T12:36:57;12.90;;;2.22;;
20511;SDS011;10414;52.074;5.126;2023-05-23T12:39:30;10.07;;;2.00;;
20511;SDS011;10414;52.074;5.126;2023-05-23T12:42:09;15.00;;;2.22;;
20511;SDS011;10414;52.074;5.126;2023-05-23T12:44:39;11.82;;;2.35;;
20511;SDS011;10414;52.074;5.126;2023-05-23T12:47:07;8.05;;;2.20;;
20511;SDS011;10414;52.074;5.126;2023-05-23T12:49:42;7.65;;;2.00;;
20511;SDS011;10414;52.074;5.126;2023-05-23T12:52:11;13.27;;;2.33;;
20511;SDS011;10414;52.074;5.126;2023-05-23T12:54:38;12.40;;;2.10;;
20511;SDS011;10414;52.074;5.126;2023-05-23T12:57:06;10.32;;;2.10;;
20511;SDS011;10414;52.074;5.126;2023-05-23T12:59:34;11.27;;;2.20;;
20511;SDS011;10414;52.074;5.126;2023-05-23T13:02:04;10.35;;;1.88;;
20511;SDS011;10414;52.074;5.126;2023-05-23T13:04:43;10.40;;;2.20;;
20511;SDS011;10414;52.074;5.126;2023-05-23T13:07:21;14.27;;;2.67;;
20511;SDS011;10414;52.074;5.126;2023-05-23T13:09:53;13.05;;;2.50;;
20511;SDS011;10414;52.074;5.126;2023-05-23T13:12:21;11.18;;;2.13;;
20511;SDS011;10414;52.074;5.126;2023-05-23T13:14:48;14.27;;;2.40;;
20511;SDS011;10414;52.074;5.126;2023-05-23T13:17:16;8.90;;;1.88;;
20511;SDS011;10414;52.074;5.126;2023-05-23T13:19:47;9.18;;;1.85;;
20511;SDS011;10414;52.074;5.126;2023-05-23T13:22:17;8.43;;;2.03;;
20511;SDS011;10414;52.074;5.126;2023-05-23T13:24:51;11.45;;;2.28;;
20511;SDS011;10414;52.074;5.126;2023-05-23T13:27:18;14.90;;;2.30;;
20511;SDS011;10414;52.074;5.126;2023-05-23T13:29:52;11.75;;;2.30;;
20511;SDS011;10414;52.074;5.126;2023-05-23T13:32:22;12.00;;;2.15;;
20511;SDS011;10414;52.074;5.126;2023-05-23T13:34:52;8.55;;;1.88;;
20511;SDS011;10414;52.074;5.126;2023-05-23T13:37:19;8.95;;;1.88;;
20511;SDS011;10414;52.074;5.126;2023-05-23T13:39:50;7.35;;;1.65;;
20511;SDS011;10414;52.074;5.126;2023-05-23T13:42:17;9.68;;;2.05;;
20511;SDS011;10414;52.074;5.126;2023-05-23T13:44:44;12.38;;;2.63;;
20511;SDS011;10414;52.074;5.126;2023-05-23T13:47:16;11.80;;;1.90;;
20511;SDS011;10414;52.074;5.126;2023-05-23T13:49:44;12.50;;;2.30;;
20511;SDS011;10414;52.074;5.126;2023-05-23T13:52:12;12.90;;;2.42;;
20511;SDS011;10414;52.074;5.126;2023-05-23T13:54:39;12.45;;;2.85;;
20511;SDS011;10414;52.074;5.126;2023-05-23T13:57:10;11.13;;;2.72;;
20511;SDS011;10414;52.074;5.126;2023-05-23T13:59:39;8.43;;;1.85;;
20511;SDS011;10414;52.074;5.126;2023-05-23T14:02:06;11.60;;;2.00;;
20511;SDS011;10414;52.074;5.126;2023-05-23T14:04:33;7.07;;;1.80;;
20511;SDS011;10414;52.074;5.126;2023-05-23T14:07:00;13.07;;;2.20;;
20511;SDS011;10414;52.074;5.126;2023-05-23T14:09:34;8.98;;;2.20;;
20511;SDS011;10414;52.074;5.126;2023-05-23T14:12:28;12.02;;;2.05;;
20511;SDS011;10414;52.074;5.126;2023-05-23T14:14:55;12.27;;;2.10;;
20511;SDS011;10414;52.074;5.126;2023-05-23T14:17:25;12.52;;;1.98;;
20511;SDS011;10414;52.074;5.126;2023-05-23T14:20:01;9.85;;;1.90;;
20511;SDS011;10414;52.074;5.126;2023-05-23T14:22:35;9.25;;;2.15;;
20511;SDS011;10414;52.074;5.126;2023-05-23T14:25:07;9.60;;;2.10;;
20511;SDS011;10414;52.074;5.126;2023-05-23T14:27:36;10.02;;;2.30;;
20511;SDS011;10414;52.074;5.126;2023-05-23T14:30:18;11.07;;;2.20;;
20511;SDS011;10414;52.074;5.126;2023-05-23T14:32:49;14.00;;;2.22;;
20511;SDS011;10414;52.074;5.126;2023-05-23T14:35:29;9.95;;;2.03;;
20511;SDS011;10414;52.074;5.126;2023-05-23T14:38:06;8.48;;;1.77;;
20511;SDS011;10414;52.074;5.126;2023-05-23T14:40:49;9.35;;;2.35;;
20511;SDS011;10414;52.074;5.126;2023-05-23T14:43:17;12.07;;;1.92;;
20511;SDS011;10414;52.074;5.126;2023-05-23T14:45:47;6.63;;;1.75;;
20511;SDS011;10414;52.074;5.126;2023-05-23T14:48:17;9.65;;;2.30;;
20511;SDS011;10414;52.074;5.126;2023-05-23T14:50:47;8.18;;;1.98;;
20511;SDS011;10414;52.074;5.126;2023-05-23T14:53:15;9.57;;;2.05;;
20511;SDS011;10414;52.074;5.126;2023-05-23T14:55:45;8.85;;;2.03;;
20511;SDS011;10414;52.074;5.126;2023-05-23T14:58:14;11.07;;;1.90;;
20511;SDS011;10414;52.074;5.126;2023-05-23T15:00:54;8.20;;;1.80;;
20511;SDS011;10414;52.074;5.126;2023-05-23T15:03:25;10.68;;;2.00;;
20511;SDS011;10414;52.074;5.126;2023-05-23T15:05:52;10.00;;;1.88;;
20511;SDS011;10414;52.074;5.126;2023-05-23T15:08:19;11.85;;;1.95;;
20511;SDS011;10414;52.074;5.126;2023-05-23T15:10:46;9.00;;;1.95;;
20511;SDS011;10414;52.074;5.126;2023-05-23T15:13:14;10.63;;;1.85;;
20511;SDS011;10414;52.074;5.126;2023-05-23T15:15:41;8.15;;;2.05;;
20511;SDS011;10414;52.074;5.126;2023-05-23T15:18:08;9.32;;;1.92;;